createdAt,value
2022-10-07T00:18:54.774Z,13.85
2022-10-07T00:40:41.544Z,12.92
2022-10-07T01:02:28.804Z,14.50
2022-10-07T01:24:26.248Z,13.43
2022-10-07T01:46:16.599Z,14.18
2022-10-07T02:08:17.938Z,12.71
2022-10-07T02:30:07.520Z,13.32
2022-10-07T02:51:59.412Z,12.16
2022-10-07T03:13:46.561Z,13.16
2022-10-07T03:35:32.855Z,11.42
2022-10-07T03:57:36.567Z,12.75
2022-10-07T04:19:22.574Z,11.63
2022-10-07T04:41:09.309Z,12.54
2022-10-07T05:02:57.198Z,11.56
2022-10-07T05:24:43.520Z,12.13
2022-10-07T05:46:30.001Z,11.49
2022-10-07T06:08:16.739Z,13.12
2022-10-07T06:30:03.369Z,12.30
2022-10-07T06:51:49.311Z,13.93
2022-10-07T07:13:36.210Z,13.45
2022-10-07T07:35:23.346Z,14.87
2022-10-07T07:57:09.774Z,14.63
2022-10-07T08:18:56.804Z,22.17
2022-10-07T08:40:51.734Z,33.92
2022-10-07T09:02:48.790Z,39.04
2022-10-07T09:24:36.088Z,34.81
2022-10-07T09:46:43.288Z,29.46
2022-10-07T10:08:32.701Z,33.41
2022-10-07T10:30:23.889Z,34.10
2022-10-07T10:52:38.045Z,30.24
2022-10-07T11:14:25.536Z,25.03
2022-10-07T11:36:18.963Z,22.63
2022-10-07T11:58:06.477Z,21.34
2022-10-07T12:20:37.373Z,20.92
2022-10-07T12:42:59.918Z,20.79
2022-10-07T13:05:08.762Z,20.67
2022-10-07T13:26:56.038Z,20.59
2022-10-07T13:48:49.048Z,20.52
2022-10-07T14:10:36.041Z,20.32
2022-10-07T14:32:41.320Z,20.30
2022-10-07T14:54:27.603Z,20.12
2022-10-07T15:16:17.413Z,19.78
2022-10-07T15:38:03.276Z,19.33
2022-10-07T15:59:48.905Z,18.64
2022-10-07T16:21:35.855Z,21.12
2022-10-07T16:43:21.561Z,20.18
2022-10-07T17:05:09.150Z,20.43
2022-10-07T17:26:56.266Z,19.93
2022-10-07T17:48:45.105Z,20.87
2022-10-07T18:10:31.203Z,18.92
2022-10-07T18:32:17.495Z,20.32
2022-10-07T18:54:03.551Z,19.39
2022-10-07T19:15:49.435Z,19.78
2022-10-07T19:37:36.373Z,18.95
2022-10-07T19:59:22.166Z,18.99
2022-10-07T20:21:12.090Z,18.63
2022-10-07T20:43:00.647Z,18.61
2022-10-07T21:04:48.203Z,18.87
2022-10-07T21:26:34.491Z,18.85
2022-10-07T21:48:20.652Z,19.83
2022-10-07T22:10:07.406Z,17.81
2022-10-07T22:31:53.260Z,19.48
2022-10-07T22:53:40.412Z,17.56
2022-10-07T23:15:26.307Z,20.07
2022-10-07T23:37:12.074Z,20.05
2022-10-07T23:58:57.825Z,17.54
